Time;durP1;ratioP1;P1;durP2;ratioP2;P2;SDS_P1;SDS_P2;PMS_P1;PMS_P2;Temp;Humidity;BMP_temperature;BMP_pressure;BME280_temperature;BME280_humidity;BME280_pressure;Samples;Min_cycle;Max_cycle;Signal;HPM_P1;HPM_P2
2023/04/29 04:04:15;;;;;;;0.73;0.73;;;10.00;99.90;;;;;;6090160;23;20561;-84
2023/04/29 04:06:40;;;;;;;1.80;1.27;;;9.90;99.90;;;;;;4915737;29;20253;-67
2023/04/29 04:09:07;;;;;;;0.90;0.90;;;9.90;99.90;;;;;;4917511;29;20166;-67
2023/04/29 04:11:32;;;;;;;1.40;1.40;;;9.90;99.90;;;;;;4915841;29;20258;-67
2023/04/29 04:13:58;;;;;;;0.90;0.90;;;9.90;99.90;;;;;;4916614;29;20269;-67
2023/04/29 04:16:23;;;;;;;1.23;1.13;;;9.80;99.90;;;;;;4916745;29;20182;-68
2023/04/29 04:18:49;;;;;;;1.00;1.00;;;9.80;99.90;;;;;;4917358;29;20178;-67
2023/04/29 04:21:14;;;;;;;1.37;1.27;;;9.70;99.90;;;;;;4917318;29;20170;-69
2023/04/29 04:23:40;;;;;;;1.40;1.30;;;9.80;99.90;;;;;;4916727;29;20205;-68
2023/04/29 04:26:06;;;;;;;0.80;0.80;;;9.80;99.90;;;;;;4917111;29;20181;-67
2023/04/29 04:28:32;;;;;;;1.23;1.13;;;9.70;99.90;;;;;;4916682;29;20210;-67
2023/04/29 04:30:57;;;;;;;0.90;0.90;;;9.80;99.90;;;;;;4917121;29;20197;-67
2023/04/29 04:33:24;;;;;;;1.90;1.57;;;9.80;99.90;;;;;;4916606;29;20170;-68
2023/04/29 04:35:50;;;;;;;0.60;0.60;;;9.70;99.90;;;;;;4916227;29;20254;-67
2023/04/29 04:38:16;;;;;;;1.47;1.10;;;9.70;99.90;;;;;;4917223;29;20174;-67
2023/04/29 04:40:42;;;;;;;1.13;1.10;;;9.70;99.90;;;;;;4912493;29;20183;-67
2023/04/29 04:43:08;;;;;;;0.83;0.80;;;9.70;99.90;;;;;;4897729;29;20987;-67
2023/04/29 04:45:33;;;;;;;0.87;0.87;;;9.70;99.90;;;;;;4899178;29;20510;-67
2023/04/29 04:47:59;;;;;;;1.17;1.17;;;9.60;99.90;;;;;;4901897;29;20261;-67
2023/04/29 04:50:28;;;;;;;1.93;1.20;;;9.50;99.90;;;;;;4902420;29;20669;-67
2023/04/29 04:52:57;;;;;;;1.02;0.90;;;9.50;99.90;;;;;;4901783;29;20902;-68
2023/04/29 04:55:23;;;;;;;0.70;0.70;;;9.50;99.90;;;;;;4884749;29;20206;-68
2023/04/29 04:57:48;;;;;;;1.10;1.10;;;9.60;99.90;;;;;;4907633;29;20182;-67
2023/04/29 05:00:14;;;;;;;0.80;0.80;;;9.70;99.90;;;;;;4920223;29;20512;-66
2023/04/29 05:02:40;;;;;;;1.53;1.43;;;9.80;99.90;;;;;;4920657;29;20194;-67
2023/04/29 05:05:06;;;;;;;1.40;1.40;;;9.80;99.90;;;;;;4919943;29;20453;-67
2023/04/29 05:07:34;;;;;;;1.27;1.10;;;9.90;99.90;;;;;;4920631;29;20417;-67
2023/04/29 05:10:01;;;;;;;1.40;1.30;;;10.00;99.90;;;;;;4920464;29;20944;-66
2023/04/29 05:12:29;;;;;;;1.63;1.52;;;10.10;99.90;;;;;;4920237;29;20190;-67
2023/04/29 05:14:58;;;;;;;1.60;1.50;;;10.30;99.90;;;;;;4902952;29;20668;-66
2023/04/29 05:17:23;;;;;;;1.17;1.17;;;10.40;99.90;;;;;;4921011;29;20183;-68
2023/04/29 05:19:49;;;;;;;1.17;1.17;;;10.50;99.90;;;;;;4920568;29;20525;-68
2023/04/29 05:22:15;;;;;;;1.20;1.20;;;10.70;99.90;;;;;;4903315;29;20205;-68
2023/04/29 05:24:41;;;;;;;1.50;1.40;;;10.80;99.90;;;;;;4919820;29;20249;-68
2023/04/29 05:27:06;;;;;;;1.47;1.40;;;10.80;99.90;;;;;;4913322;29;20199;-67
2023/04/29 05:29:32;;;;;;;1.30;1.30;;;10.90;99.90;;;;;;4901259;29;20178;-67
2023/04/29 05:31:58;;;;;;;1.27;1.20;;;11.00;99.90;;;;;;4901352;29;20593;-68
2023/04/29 05:34:23;;;;;;;1.50;1.40;;;11.10;99.90;;;;;;4900820;29;20212;-68
2023/04/29 05:36:49;;;;;;;1.70;1.50;;;11.20;99.90;;;;;;4901316;29;20462;-68
2023/04/29 05:39:15;;;;;;;1.57;1.47;;;11.30;99.90;;;;;;4901285;29;20583;-67
2023/04/29 05:41:41;;;;;;;1.43;1.43;;;11.40;99.90;;;;;;4906166;29;20171;-67
2023/04/29 05:44:06;;;;;;;2.17;2.07;;;11.50;99.90;;;;;;4919547;29;20994;-68
2023/04/29 05:46:32;;;;;;;1.83;1.73;;;11.70;99.90;;;;;;4919836;29;20219;-67
2023/04/29 05:48:57;;;;;;;2.17;1.80;;;11.90;99.90;;;;;;4908635;29;20185;-68
2023/04/29 05:51:23;;;;;;;2.10;1.90;;;12.20;99.90;;;;;;4883780;29;20181;-67
2023/04/29 05:53:49;;;;;;;2.53;2.33;;;12.40;99.90;;;;;;4900339;29;20196;-69
2023/04/29 05:56:15;;;;;;;2.03;1.90;;;12.60;99.90;;;;;;4903815;29;20224;-69
2023/04/29 05:58:41;;;;;;;2.80;2.47;;;13.10;99.90;;;;;;4918854;29;20599;-67
2023/04/29 06:01:06;;;;;;;2.90;2.73;;;13.60;99.90;;;;;;4919478;29;20550;-70
2023/04/29 06:03:33;;;;;;;2.50;2.30;;;13.90;99.90;;;;;;4919163;29;20691;-70
2023/04/29 06:05:58;;;;;;;3.43;3.13;;;14.00;99.90;;;;;;4919476;29;20575;-65
2023/04/29 06:08:25;;;;;;;2.70;2.47;;;14.10;99.90;;;;;;4912393;29;20518;-72
2023/04/29 06:10:51;;;;;;;1.67;1.67;;;14.20;99.90;;;;;;4900454;29;20175;-71
2023/04/29 06:13:17;;;;;;;1.70;1.60;;;14.30;99.90;;;;;;4899984;29;20417;-66
2023/04/29 06:15:43;;;;;;;1.67;1.57;;;14.50;99.90;;;;;;4900407;29;20199;-67
2023/04/29 06:18:09;;;;;;;1.83;1.73;;;14.70;99.90;;;;;;4900224;29;20454;-68
2023/04/29 06:20:34;;;;;;;1.50;1.40;;;14.90;99.90;;;;;;4900537;29;20449;-71
2023/04/29 06:23:00;;;;;;;2.90;2.70;;;15.40;99.90;;;;;;4902079;29;20198;-73
2023/04/29 06:25:25;;;;;;;1.83;1.73;;;15.80;99.90;;;;;;4912348;29;20279;-70
2023/04/29 06:27:51;;;;;;;2.00;1.80;;;16.00;99.90;;;;;;4919062;29;20234;-69
2023/04/29 06:30:17;;;;;;;2.23;2.13;;;16.10;99.90;;;;;;4919032;29;20167;-69
2023/04/29 06:32:42;;;;;;;2.13;2.03;;;16.40;99.90;;;;;;4919120;29;20689;-70
2023/04/29 06:35:08;;;;;;;2.60;2.40;;;16.60;99.90;;;;;;4918509;29;20194;-68
2023/04/29 06:37:33;;;;;;;1.70;1.60;;;16.90;99.90;;;;;;4895936;29;20224;-70
2023/04/29 06:39:59;;;;;;;1.60;1.50;;;16.90;99.90;;;;;;4883160;29;20585;-69
2023/04/29 06:42:25;;;;;;;2.30;2.17;;;17.00;99.90;;;;;;4899729;29;20191;-69
2023/04/29 06:44:50;;;;;;;2.70;2.50;;;17.20;99.90;;;;;;4899428;29;20191;-69
2023/04/29 06:47:16;;;;;;;1.70;1.70;;;16.80;99.90;;;;;;4903684;29;20264;-70
2023/04/29 06:49:44;;;;;;;1.70;1.60;;;16.80;99.90;;;;;;4918505;29;20533;-67
2023/04/29 06:52:10;;;;;;;1.40;1.30;;;16.80;99.90;;;;;;4918481;29;20229;-68
2023/04/29 06:54:36;;;;;;;1.53;1.43;;;16.90;99.90;;;;;;4918195;29;20509;-65
2023/04/29 06:57:01;;;;;;;1.43;1.40;;;16.80;99.90;;;;;;4918098;29;20186;-68
2023/04/29 06:59:27;;;;;;;1.40;1.37;;;16.70;99.90;;;;;;4918328;29;20179;-71
2023/04/29 07:01:52;;;;;;;1.40;1.40;;;16.60;99.90;;;;;;4918391;29;20170;-69
2023/04/29 07:04:19;;;;;;;1.60;1.50;;;16.50;99.90;;;;;;4918135;29;20202;-69
2023/04/29 07:06:45;;;;;;;1.50;1.10;;;16.50;99.90;;;;;;4918248;29;20207;-69
2023/04/29 07:09:15;;;;;;;2.30;2.10;;;16.40;99.90;;;;;;4917902;29;20414;-67
2023/04/29 07:11:40;;;;;;;1.70;1.60;;;16.20;99.90;;;;;;4903867;29;20409;-68
2023/04/29 07:14:06;;;;;;;1.50;1.40;;;16.00;99.90;;;;;;4899487;29;20569;-66
2023/04/29 07:16:32;;;;;;;1.67;1.57;;;16.00;99.90;;;;;;4918186;29;20514;-66
2023/04/29 07:18:58;;;;;;;3.43;1.47;;;15.90;99.90;;;;;;4914691;29;20471;-67
2023/04/29 07:21:24;;;;;;;1.73;1.63;;;15.90;99.90;;;;;;4899225;29;20171;-67
2023/04/29 07:23:49;;;;;;;2.40;1.80;;;16.30;99.90;;;;;;4898721;29;20462;-67
2023/04/29 07:26:16;;;;;;;2.37;1.80;;;17.10;99.90;;;;;;4899746;29;20183;-68
2023/04/29 07:28:43;;;;;;;1.17;1.17;;;17.80;99.90;;;;;;4898419;29;20185;-68
2023/04/29 07:31:11;;;;;;;1.67;1.57;;;18.30;99.90;;;;;;4899211;29;20415;-68
2023/04/29 07:33:37;;;;;;;1.37;1.27;;;18.60;99.90;;;;;;4898363;29;20769;-67
2023/04/29 07:36:03;;;;;;;0.97;0.97;;;18.80;99.90;;;;;;4898116;29;21019;-68
2023/04/29 07:38:29;;;;;;;0.77;0.77;;;18.70;99.90;;;;;;4898525;29;20512;-68
2023/04/29 07:40:55;;;;;;;1.40;1.30;;;18.60;99.90;;;;;;4898390;29;20786;-67
2023/04/29 07:43:21;;;;;;;2.40;2.20;;;18.50;99.90;;;;;;4897113;29;20438;-68
2023/04/29 07:45:47;;;;;;;1.10;1.00;;;18.60;99.90;;;;;;4898208;29;20775;-67
2023/04/29 07:48:13;;;;;;;1.10;1.10;;;18.90;99.90;;;;;;4901216;29;20536;-68
2023/04/29 07:50:38;;;;;;;1.10;1.10;;;19.20;99.90;;;;;;4911009;29;20430;-68
2023/04/29 07:53:04;;;;;;;1.23;1.23;;;19.30;99.90;;;;;;4898169;29;20239;-68
2023/04/29 07:55:30;;;;;;;1.10;1.10;;;19.30;99.90;;;;;;4898304;29;20210;-69
2023/04/29 07:57:56;;;;;;;1.03;1.03;;;19.20;99.90;;;;;;4898827;29;20767;-68
2023/04/29 08:00:23;;;;;;;1.13;1.13;;;19.00;99.90;;;;;;4898705;29;20432;-69
2023/04/29 08:02:52;;;;;;;0.80;0.80;;;18.70;99.90;;;;;;4898768;29;20607;-68
2023/04/29 08:05:20;;;;;;;0.90;0.90;;;18.50;99.90;;;;;;4898278;29;20473;-68
2023/04/29 08:07:46;;;;;;;0.93;0.93;;;18.20;99.90;;;;;;4913031;29;20430;-68
2023/04/29 08:10:11;;;;;;;1.67;1.57;;;18.00;99.90;;;;;;4900465;29;20932;-69
2023/04/29 08:12:37;;;;;;;1.27;1.27;;;17.80;99.90;;;;;;4915795;29;20414;-69
2023/04/29 08:15:04;;;;;;;1.37;1.27;;;17.60;99.90;;;;;;4898042;29;20206;-69
2023/04/29 08:17:29;;;;;;;1.37;1.37;;;17.40;99.90;;;;;;4898598;29;20190;-68
2023/04/29 08:19:55;;;;;;;1.17;1.10;;;17.20;99.90;;;;;;4896529;29;20427;-68
2023/04/29 08:22:21;;;;;;;1.57;1.47;;;17.20;99.90;;;;;;4898425;29;20278;-68
2023/04/29 08:24:47;;;;;;;1.00;1.00;;;17.10;99.90;;;;;;4897895;29;20194;-69
2023/04/29 08:27:14;;;;;;;1.30;1.20;;;17.10;99.90;;;;;;4898336;29;20171;-69
2023/04/29 08:29:39;;;;;;;1.60;1.50;;;16.90;99.90;;;;;;4898599;29;20471;-69
2023/04/29 08:32:05;;;;;;;1.10;1.10;;;16.80;99.90;;;;;;4898800;29;20411;-68
2023/04/29 08:34:32;;;;;;;1.50;1.40;;;16.50;99.90;;;;;;4897787;29;20501;-67
2023/04/29 08:36:58;;;;;;;1.30;1.20;;;16.40;99.90;;;;;;4898371;29;20175;-69
2023/04/29 08:39:24;;;;;;;2.17;1.80;;;16.20;99.90;;;;;;4898200;29;20418;-69
2023/04/29 08:41:51;;;;;;;1.60;1.50;;;16.10;99.90;;;;;;4898241;29;20174;-69
2023/04/29 08:44:17;;;;;;;2.70;2.47;;;16.10;99.90;;;;;;4916412;29;20501;-68
2023/04/29 08:46:45;;;;;;;1.43;1.33;;;16.00;99.90;;;;;;4917032;29;20435;-70
2023/04/29 08:49:11;;;;;;;1.50;1.40;;;16.10;99.90;;;;;;4917608;29;21006;-68
2023/04/29 08:51:37;;;;;;;1.33;1.30;;;16.20;99.90;;;;;;4918341;29;20410;-69
2023/04/29 08:54:03;;;;;;;1.40;1.30;;;16.40;99.90;;;;;;4918652;29;20449;-67
2023/04/29 08:56:30;;;;;;;1.73;1.63;;;16.40;99.90;;;;;;4901787;29;20529;-69
2023/04/29 08:58:57;;;;;;;1.53;1.43;;;16.50;99.90;;;;;;4900602;29;20190;-69
2023/04/29 09:01:26;;;;;;;2.40;2.20;;;16.70;99.90;;;;;;4899980;29;20791;-70
2023/04/29 09:04:37;;;;;;;2.63;2.40;;;17.10;99.90;;;;;;4898515;29;20470;-69
2023/04/29 09:07:04;;;;;;;1.83;1.73;;;17.50;99.90;;;;;;4886267;29;20920;-69
2023/04/29 09:09:31;;;;;;;1.33;1.23;;;18.10;99.90;;;;;;4897581;29;20756;-68
2023/04/29 09:11:57;;;;;;;0.93;0.93;;;18.40;99.90;;;;;;4902274;29;20751;-69
2023/04/29 09:14:23;;;;;;;0.90;0.90;;;18.50;99.90;;;;;;4916610;29;20472;-68
2023/04/29 09:16:50;;;;;;;0.90;0.90;;;18.70;99.90;;;;;;4916807;29;20393;-68
2023/04/29 09:19:35;;;;;;;1.10;1.00;;;19.00;99.90;;;;;;4916548;29;20406;-68
2023/04/29 09:22:06;;;;;;;1.10;1.10;;;19.00;99.90;;;;;;4916536;29;20415;-69
2023/04/29 09:24:32;;;;;;;1.10;1.10;;;19.00;99.90;;;;;;4916480;29;20955;-68
2023/04/29 09:26:59;;;;;;;1.77;1.23;;;19.00;99.90;;;;;;4916231;29;20430;-68
2023/04/29 09:29:24;;;;;;;0.90;0.90;;;19.00;99.90;;;;;;4916660;29;20171;-68
2023/04/29 09:31:52;;;;;;;1.10;1.10;;;19.20;99.90;;;;;;4918165;29;20517;-69
2023/04/29 09:34:38;;;;;;;1.20;1.20;;;19.40;99.90;;;;;;4919679;29;20216;-67
2023/04/29 09:37:21;;;;;;;119.80;12.17;;;19.60;99.90;;;;;;4882445;29;20428;-69
2023/04/29 09:39:47;;;;;;;1.60;1.50;;;20.00;99.90;;;;;;4882715;29;20868;-68
2023/04/29 09:42:13;;;;;;;1.33;1.23;;;20.30;99.90;;;;;;4882649;29;20394;-67
2023/04/29 09:44:41;;;;;;;2.07;1.50;;;20.40;99.90;;;;;;4882050;29;20187;-67
2023/04/29 09:47:08;;;;;;;1.57;1.47;;;20.80;99.90;;;;;;4882280;29;20422;-67
2023/04/29 09:49:40;;;;;;;1.80;1.70;;;21.20;99.90;;;;;;4885056;29;20395;-69
2023/04/29 09:52:11;;;;;;;1.80;1.70;;;21.50;99.90;;;;;;4901015;29;20475;-68
2023/04/29 09:54:39;;;;;;;1.90;1.80;;;21.90;99.90;;;;;;4900452;29;20392;-69
2023/04/29 09:57:06;;;;;;;1.77;1.67;;;22.20;99.90;;;;;;4900477;29;20793;-70
2023/04/29 09:59:35;;;;;;;148.60;9.00;;;22.60;99.90;;;;;;4900629;29;20390;-67
2023/04/29 10:02:06;;;;;;;3.30;2.03;;;23.10;99.90;;;;;;4900503;29;20477;-69
2023/04/29 10:04:33;;;;;;;3.00;1.90;;;23.20;99.90;;;;;;4915698;29;20499;-68
2023/04/29 10:07:00;;;;;;;2.60;1.80;;;22.80;99.80;;;;;;4919297;29;20440;-67
2023/04/29 10:09:26;;;;;;;2.63;1.53;;;22.50;99.90;;;;;;4919443;29;20434;-67
2023/04/29 10:11:53;;;;;;;3.40;1.80;;;22.80;99.90;;;;;;4919237;29;20747;-67
2023/04/29 10:14:21;;;;;;;2.60;1.53;;;22.80;99.70;;;;;;4904454;29;20418;-67
2023/04/29 10:16:48;;;;;;;2.67;1.57;;;22.70;99.00;;;;;;4900623;29;20425;-68
2023/04/29 10:19:38;;;;;;;3.00;2.03;;;22.60;98.90;;;;;;4900382;29;20390;-68
2023/04/29 10:22:08;;;;;;;2.50;1.40;;;22.00;99.90;;;;;;4900402;29;20481;-68
2023/04/29 10:24:36;;;;;;;2.20;1.33;;;21.90;99.90;;;;;;4900135;29;20451;-68
2023/04/29 10:27:04;;;;;;;3.03;1.40;;;22.10;99.90;;;;;;4900832;29;20397;-68
2023/04/29 10:29:33;;;;;;;2.80;1.67;;;22.60;99.30;;;;;;4900470;29;20389;-67
2023/04/29 10:32:00;;;;;;;2.20;1.40;;;22.50;99.50;;;;;;4900295;29;20390;-67
2023/04/29 10:34:27;;;;;;;3.40;2.00;;;22.30;98.90;;;;;;4899895;29;20509;-68
2023/04/29 10:36:53;;;;;;;2.70;1.50;;;22.20;98.50;;;;;;4893050;29;20401;-69
2023/04/29 10:39:29;;;;;;;2.20;1.23;;;22.40;99.30;;;;;;4919023;29;20905;-70
2023/04/29 10:41:55;;;;;;;3.80;1.20;;;23.00;99.50;;;;;;4919097;29;20193;-69
2023/04/29 10:44:22;;;;;;;2.70;1.67;;;23.70;98.20;;;;;;4917783;29;20791;-69
2023/04/29 10:46:48;;;;;;;2.97;1.70;;;24.50;95.80;;;;;;4918836;29;20760;-68
2023/04/29 10:49:14;;;;;;;2.80;1.70;;;24.50;95.40;;;;;;4916122;29;20418;-68
2023/04/29 10:51:44;;;;;;;3.20;1.83;;;24.20;94.90;;;;;;4907439;29;20416;-68
2023/04/29 10:54:13;;;;;;;2.20;1.30;;;23.80;96.40;;;;;;4897924;29;20211;-69
2023/04/29 10:56:49;;;;;;;2.50;1.50;;;23.10;94.70;;;;;;4899650;29;20411;-69
2023/04/29 10:59:18;;;;;;;17.33;4.60;;;22.60;96.10;;;;;;4899829;29;20385;-69
2023/04/29 11:01:47;;;;;;;2.13;1.70;;;22.20;97.40;;;;;;4907269;29;20824;-69
2023/04/29 11:04:13;;;;;;;1.90;1.40;;;21.70;97.30;;;;;;4918004;29;20463;-69
2023/04/29 11:06:41;;;;;;;1.53;1.27;;;21.20;97.90;;;;;;4918387;29;20430;-68
2023/04/29 11:09:17;;;;;;;5.10;1.60;;;20.80;98.60;;;;;;4918408;29;20447;-68
2023/04/29 11:11:53;;;;;;;1.60;1.50;;;20.50;99.20;;;;;;4919066;29;20377;-69
2023/04/29 11:14:30;;;;;;;1.17;1.17;;;20.30;98.80;;;;;;4918413;29;20409;-68
2023/04/29 11:16:58;;;;;;;1.90;1.60;;;20.20;99.00;;;;;;4918979;29;20423;-68
2023/04/29 11:19:30;;;;;;;1.10;1.10;;;20.30;99.90;;;;;;4918998;29;20406;-69
2023/04/29 11:22:17;;;;;;;1.07;0.97;;;20.40;99.90;;;;;;4918405;29;20501;-69
2023/04/29 11:24:51;;;;;;;1.43;1.10;;;20.40;98.90;;;;;;4908210;29;20451;-69
2023/04/29 11:27:19;;;;;;;1.00;1.00;;;20.30;98.90;;;;;;4899391;29;20403;-69
2023/04/29 11:29:49;;;;;;;1.37;1.27;;;20.20;99.60;;;;;;4882510;29;20933;-69
2023/04/29 11:32:15;;;;;;;1.27;1.20;;;19.90;99.50;;;;;;4898281;29;20379;-68
2023/04/29 11:34:41;;;;;;;2.13;2.03;;;19.60;99.90;;;;;;4898969;29;20425;-68
2023/04/29 11:37:07;;;;;;;1.30;1.20;;;19.50;99.90;;;;;;4899543;29;20408;-69
2023/04/29 11:39:36;;;;;;;1.47;1.40;;;19.20;99.90;;;;;;4899207;29;20475;-68
2023/04/29 11:42:05;;;;;;;1.90;1.80;;;19.30;99.90;;;;;;4899631;29;20174;-69
2023/04/29 11:44:35;;;;;;;2.07;1.87;;;19.10;99.90;;;;;;4898522;29;20414;-68
2023/04/29 11:47:07;;;;;;;1.57;1.47;;;18.90;99.90;;;;;;4898943;29;20483;-67
2023/04/29 11:49:33;;;;;;;1.83;1.73;;;18.90;99.90;;;;;;4899096;29;20763;-69
2023/04/29 11:52:00;;;;;;;2.17;2.07;;;18.80;99.90;;;;;;4898549;29;20378;-69
2023/04/29 11:54:26;;;;;;;2.07;1.97;;;18.80;99.90;;;;;;4908932;29;20453;-68
2023/04/29 11:56:54;;;;;;;2.07;1.80;;;18.80;99.90;;;;;;4917671;29;20405;-68
2023/04/29 11:59:21;;;;;;;2.20;2.03;;;19.10;99.90;;;;;;4917637;29;20507;-68
2023/04/29 12:01:47;;;;;;;1.93;1.83;;;19.10;99.90;;;;;;4917595;29;20411;-68
2023/04/29 12:04:13;;;;;;;2.20;2.10;;;19.00;99.90;;;;;;4917261;29;20474;-69
2023/04/29 12:06:39;;;;;;;2.60;2.40;;;18.90;99.90;;;;;;4917460;29;20953;-68
2023/04/29 12:09:05;;;;;;;1.97;1.87;;;18.80;99.90;;;;;;4916764;29;20179;-68
2023/04/29 12:11:30;;;;;;;2.20;2.10;;;18.80;99.90;;;;;;4917102;29;20485;-67
2023/04/29 12:13:57;;;;;;;2.50;2.30;;;18.80;99.90;;;;;;4917023;29;20176;-68
2023/04/29 12:16:27;;;;;;;3.20;3.00;;;18.60;99.90;;;;;;4917435;29;20241;-69
2023/04/29 12:18:54;;;;;;;2.13;2.03;;;18.70;99.90;;;;;;4906139;29;20445;-67
2023/04/29 12:21:21;;;;;;;2.60;2.40;;;18.70;99.90;;;;;;4898548;29;20416;-68
2023/04/29 12:23:47;;;;;;;2.20;2.10;;;18.70;99.90;;;;;;4897951;29;20810;-68
2023/04/29 12:26:13;;;;;;;2.40;2.20;;;18.80;99.90;;;;;;4898202;29;20834;-67
2023/04/29 12:28:43;;;;;;;1.80;1.70;;;18.80;99.90;;;;;;4898297;29;20419;-67
2023/04/29 12:31:10;;;;;;;2.10;1.90;;;18.80;99.90;;;;;;4898756;29;20422;-68
2023/04/29 12:33:36;;;;;;;2.60;2.30;;;18.70;99.90;;;;;;4897898;29;20428;-68
2023/04/29 12:36:02;;;;;;;3.00;2.00;;;18.70;99.90;;;;;;4898264;29;20431;-67
2023/04/29 12:38:29;;;;;;;1.70;1.60;;;18.60;99.90;;;;;;4898043;29;20415;-67
2023/04/29 12:41:00;;;;;;;1.97;1.83;;;18.50;99.90;;;;;;4897878;29;20175;-69
2023/04/29 12:43:30;;;;;;;2.10;2.00;;;18.40;99.90;;;;;;4897503;29;20463;-67
2023/04/29 12:46:06;;;;;;;1.73;1.63;;;18.30;99.90;;;;;;4897780;29;20408;-67
2023/04/29 12:48:33;;;;;;;1.60;1.50;;;18.40;99.90;;;;;;4909901;29;20400;-68
2023/04/29 12:51:00;;;;;;;2.00;1.90;;;18.40;99.90;;;;;;4916768;29;20422;-68
2023/04/29 12:53:28;;;;;;;1.63;1.43;;;18.60;99.90;;;;;;4916556;29;20381;-69
2023/04/29 12:55:54;;;;;;;1.80;1.70;;;18.60;99.90;;;;;;4917038;29;20438;-68
2023/04/29 12:58:19;;;;;;;2.10;2.00;;;18.70;99.90;;;;;;4917117;29;20742;-67
2023/04/29 13:00:45;;;;;;;2.50;2.00;;;18.80;99.90;;;;;;4916861;29;20637;-69
2023/04/29 13:03:11;;;;;;;3.80;2.70;;;18.80;99.90;;;;;;4916095;29;20322;-69
2023/04/29 13:05:37;;;;;;;2.20;2.00;;;18.80;99.90;;;;;;4916392;29;20210;-68
2023/04/29 13:08:05;;;;;;;2.37;2.17;;;19.00;99.90;;;;;;4920297;29;20178;-69
2023/04/29 13:10:31;;;;;;;2.30;2.20;;;18.90;99.90;;;;;;4920358;29;20182;-68
2023/04/29 13:12:57;;;;;;;2.27;2.10;;;18.90;99.90;;;;;;4920308;29;20792;-72
2023/04/29 13:15:23;;;;;;;2.40;2.20;;;18.90;99.90;;;;;;4920538;29;20845;-69
2023/04/29 13:17:50;;;;;;;2.20;2.10;;;19.00;99.90;;;;;;4909616;29;20459;-69
2023/04/29 13:20:16;;;;;;;2.07;1.97;;;18.70;99.90;;;;;;4901521;29;20764;-68
2023/04/29 13:22:43;;;;;;;3.63;2.40;;;18.60;99.90;;;;;;4901267;29;20459;-68
2023/04/29 13:25:10;;;;;;;2.27;2.07;;;18.60;99.90;;;;;;4900907;29;20419;-68
2023/04/29 13:27:37;;;;;;;2.40;2.20;;;18.60;99.90;;;;;;4901360;29;20439;-69
2023/04/29 13:30:04;;;;;;;2.13;2.00;;;18.60;99.90;;;;;;4901392;29;20415;-69
2023/04/29 13:32:29;;;;;;;3.00;2.30;;;18.50;99.90;;;;;;4901407;29;20411;-68
2023/04/29 13:34:55;;;;;;;3.70;3.33;;;18.50;99.90;;;;;;4900641;29;20765;-68
2023/04/29 13:37:21;;;;;;;3.23;3.00;;;18.30;99.90;;;;;;4901426;29;20179;-68
2023/04/29 13:39:46;;;;;;;2.83;2.63;;;18.30;99.90;;;;;;4916902;29;20748;-69
2023/04/29 13:42:12;;;;;;;3.13;2.83;;;18.10;99.90;;;;;;4919789;29;20198;-68
2023/04/29 13:44:42;;;;;;;3.33;2.70;;;17.90;99.90;;;;;;4919592;29;20194;-68
2023/04/29 13:47:11;;;;;;;2.73;2.03;;;17.80;99.90;;;;;;4920024;29;20174;-69
2023/04/29 13:49:43;;;;;;;2.80;2.60;;;17.70;99.90;;;;;;4919759;29;20407;-68
2023/04/29 13:52:09;;;;;;;3.13;2.87;;;17.60;99.90;;;;;;4920005;29;20442;-68
2023/04/29 13:54:35;;;;;;;5.03;3.03;;;17.50;99.90;;;;;;4919115;29;20848;-69
2023/04/29 13:57:04;;;;;;;3.80;3.43;;;17.20;99.90;;;;;;4902494;29;20460;-69
2023/04/29 13:59:30;;;;;;;3.07;2.47;;;17.10;99.90;;;;;;4902625;29;20181;-68
2023/04/29 14:01:57;;;;;;;2.93;2.60;;;17.10;99.90;;;;;;4919668;29;20417;-68
2023/04/29 14:04:23;;;;;;;3.60;2.80;;;17.10;99.90;;;;;;4918927;29;20436;-68
2023/04/29 14:06:49;;;;;;;4.13;2.70;;;17.10;99.90;;;;;;4919636;29;20425;-68
2023/04/29 14:09:15;;;;;;;4.50;3.23;;;17.10;99.90;;;;;;4907388;29;20944;-67
2023/04/29 14:11:41;;;;;;;2.80;2.60;;;17.10;99.90;;;;;;4900378;29;20258;-69
2023/04/29 14:14:07;;;;;;;2.83;2.57;;;17.10;99.90;;;;;;4895576;29;20413;-68
2023/04/29 14:16:32;;;;;;;2.17;1.93;;;17.20;99.90;;;;;;4919359;29;20189;-69
2023/04/29 14:18:58;;;;;;;4.00;3.20;;;17.30;99.90;;;;;;4918056;29;20578;-67
2023/04/29 14:21:23;;;;;;;3.57;3.23;;;17.30;99.90;;;;;;4919171;29;20185;-68
2023/04/29 14:23:49;;;;;;;3.27;2.97;;;17.30;99.90;;;;;;4901366;29;20202;-68
2023/04/29 14:26:15;;;;;;;3.07;2.83;;;17.10;99.90;;;;;;4919185;29;20185;-69
2023/04/29 14:28:41;;;;;;;4.80;3.10;;;17.00;99.90;;;;;;4919270;29;20487;-67
2023/04/29 14:31:07;;;;;;;4.10;3.53;;;16.90;99.90;;;;;;4919215;29;20170;-68
2023/04/29 14:33:32;;;;;;;4.07;3.57;;;16.90;99.90;;;;;;4918772;29;20417;-68
2023/04/29 14:35:59;;;;;;;2.43;2.20;;;16.70;99.90;;;;;;4919099;29;20609;-69
2023/04/29 14:38:25;;;;;;;2.90;2.70;;;16.70;99.90;;;;;;4909647;29;20261;-68
2023/04/29 14:40:51;;;;;;;4.50;3.47;;;16.50;99.90;;;;;;4900241;29;20467;-68
2023/04/29 14:43:17;;;;;;;2.93;2.73;;;16.60;99.90;;;;;;4899784;29;20198;-68
2023/04/29 14:45:43;;;;;;;2.73;2.43;;;16.70;99.90;;;;;;4900024;29;20518;-68
2023/04/29 14:48:09;;;;;;;3.90;3.03;;;16.80;99.90;;;;;;4900026;29;20170;-68
2023/04/29 14:50:35;;;;;;;3.30;3.00;;;16.90;99.90;;;;;;4899892;29;20500;-69
2023/04/29 14:53:01;;;;;;;3.03;2.70;;;16.90;99.90;;;;;;4899496;29;20426;-68
2023/04/29 14:55:27;;;;;;;2.87;2.67;;;16.90;99.90;;;;;;4899777;29;20200;-68
2023/04/29 14:57:52;;;;;;;3.03;2.33;;;16.80;99.90;;;;;;4899884;29;20592;-68
2023/04/29 15:00:18;;;;;;;2.90;2.70;;;16.60;99.90;;;;;;4886815;29;20185;-68
2023/04/29 15:02:43;;;;;;;3.10;2.90;;;16.40;99.90;;;;;;4918551;29;20213;-69
2023/04/29 15:05:09;;;;;;;3.73;2.87;;;16.30;99.90;;;;;;4918003;29;20598;-67
2023/04/29 15:07:34;;;;;;;3.37;3.07;;;16.10;99.90;;;;;;4901493;29;20252;-68
2023/04/29 15:10:01;;;;;;;3.30;3.00;;;16.10;99.90;;;;;;4918495;29;20183;-69
2023/04/29 15:12:26;;;;;;;3.80;2.57;;;16.00;99.90;;;;;;4918507;29;20181;-68
2023/04/29 15:14:52;;;;;;;5.27;2.60;;;16.00;99.90;;;;;;4914903;29;20437;-69
2023/04/29 15:17:17;;;;;;;2.67;2.50;;;16.10;99.90;;;;;;4899527;29;20177;-69
2023/04/29 15:19:44;;;;;;;3.20;2.90;;;16.10;99.90;;;;;;4899534;29;20201;-68
2023/04/29 15:22:09;;;;;;;2.53;2.33;;;16.20;99.90;;;;;;4899429;29;20503;-69
2023/04/29 15:24:35;;;;;;;3.00;2.80;;;16.40;99.90;;;;;;4911467;29;20480;-69
2023/04/29 15:27:02;;;;;;;4.50;3.93;;;16.50;99.90;;;;;;4918956;29;20265;-69
2023/04/29 15:29:28;;;;;;;3.70;3.20;;;16.60;99.90;;;;;;4910126;29;20491;-68
2023/04/29 15:31:54;;;;;;;9.50;7.67;;;16.80;99.90;;;;;;4899173;29;20415;-68
2023/04/29 15:34:20;;;;;;;3.30;3.00;;;16.70;99.90;;;;;;4881986;29;20453;-69
2023/04/29 15:36:46;;;;;;;7.70;6.93;;;16.70;99.90;;;;;;4899351;29;20242;-68
2023/04/29 15:39:11;;;;;;;5.30;4.33;;;16.60;99.90;;;;;;4898960;29;20424;-68
2023/04/29 15:41:37;;;;;;;2.50;2.20;;;16.50;99.90;;;;;;4899250;29;20177;-69
2023/04/29 15:44:03;;;;;;;2.60;2.40;;;16.40;99.90;;;;;;4881576;29;20260;-68
2023/04/29 15:46:30;;;;;;;3.57;2.37;;;16.30;99.90;;;;;;4882134;29;20416;-69
2023/04/29 15:48:56;;;;;;;2.87;2.53;;;16.20;99.90;;;;;;4898968;29;20177;-68
2023/04/29 15:51:21;;;;;;;2.47;2.27;;;16.30;99.90;;;;;;4898965;29;20414;-68
2023/04/29 15:53:47;;;;;;;4.97;3.93;;;16.30;99.90;;;;;;4915151;29;20188;-68
2023/04/29 15:56:13;;;;;;;3.00;2.80;;;16.30;99.90;;;;;;4900792;29;20640;-69
2023/04/29 15:58:39;;;;;;;3.27;2.90;;;16.40;99.90;;;;;;4917587;29;20413;-68
2023/04/29 16:01:04;;;;;;;2.23;2.03;;;16.30;99.90;;;;;;4917501;29;20231;-67
2023/04/29 16:03:30;;;;;;;3.03;2.80;;;16.30;99.90;;;;;;4917132;29;20293;-68
2023/04/29 16:05:56;;;;;;;2.47;2.27;;;16.20;99.90;;;;;;4917366;29;20280;-69
2023/04/29 16:08:22;;;;;;;4.53;3.37;;;16.10;99.90;;;;;;4917291;29;20213;-68
2023/04/29 16:10:48;;;;;;;2.83;2.63;;;16.00;99.90;;;;;;4917693;29;20183;-68
2023/04/29 16:13:14;;;;;;;3.50;2.97;;;15.90;99.90;;;;;;4916930;29;20494;-68
2023/04/29 16:15:40;;;;;;;2.47;2.27;;;15.80;99.90;;;;;;4917290;29;20575;-67
2023/04/29 16:18:05;;;;;;;2.30;2.10;;;15.70;99.90;;;;;;4917371;29;20412;-68
2023/04/29 16:20:31;;;;;;;3.73;2.83;;;15.70;99.90;;;;;;4917348;29;20210;-68
2023/04/29 16:22:57;;;;;;;2.07;1.87;;;15.80;99.90;;;;;;4905271;29;20299;-70
2023/04/29 16:25:23;;;;;;;2.23;2.00;;;15.80;99.90;;;;;;4916731;29;20500;-69
2023/04/29 16:27:48;;;;;;;3.50;2.90;;;15.80;99.90;;;;;;4917441;29;20688;-69
2023/04/29 16:30:14;;;;;;;2.90;2.70;;;15.80;99.90;;;;;;4917320;29;20535;-68
2023/04/29 16:32:41;;;;;;;2.93;2.57;;;15.70;99.90;;;;;;4917182;29;20183;-68
2023/04/29 16:35:10;;;;;;;4.50;2.27;;;15.70;99.90;;;;;;4899695;29;20204;-68
2023/04/29 16:37:36;;;;;;;2.17;1.97;;;15.50;99.90;;;;;;4917087;29;20424;-69
2023/04/29 16:40:02;;;;;;;3.60;2.70;;;15.40;99.90;;;;;;4900260;29;20514;-67
2023/04/29 16:42:28;;;;;;;3.30;2.40;;;15.40;99.90;;;;;;4916242;29;20266;-69
2023/04/29 16:44:53;;;;;;;13.80;12.60;;;15.40;99.90;;;;;;4916688;29;21003;-68
2023/04/29 16:47:19;;;;;;;3.67;3.37;;;15.40;99.90;;;;;;4917114;29;20174;-69
2023/04/29 16:49:45;;;;;;;3.43;3.00;;;15.40;99.90;;;;;;4917032;29;20221;-68